createdAt,value
2017-12-27T00:01:44.158Z,5.10
2017-12-27T00:04:18.448Z,5.20
2017-12-27T00:06:52.407Z,5.30
2017-12-27T00:09:27.144Z,5.20
2017-12-27T00:12:01.120Z,5.10
2017-12-27T00:14:34.926Z,5.10
2017-12-27T00:17:08.312Z,5.00
2017-12-27T00:19:41.663Z,5.10
2017-12-27T00:22:16.050Z,5.10
2017-12-27T00:24:49.220Z,5.00
2017-12-27T00:27:22.851Z,5.10
2017-12-27T00:29:56.630Z,5.20
2017-12-27T00:32:24.026Z,5.20
2017-12-27T00:34:52.587Z,5.20
2017-12-27T00:37:20.079Z,5.20
2017-12-27T00:39:48.027Z,5.20
2017-12-27T00:42:16.183Z,5.10
2017-12-27T00:44:43.950Z,5.10
2017-12-27T00:47:13.262Z,5.10
2017-12-27T00:49:41.015Z,5.10
2017-12-27T00:52:08.514Z,5.10
2017-12-27T00:54:36.524Z,5.00
2017-12-27T00:57:04.041Z,5.00
2017-12-27T00:59:31.716Z,5.00
2017-12-27T01:01:59.218Z,5.10
2017-12-27T01:04:27.107Z,5.10
2017-12-27T01:06:54.743Z,5.10
2017-12-27T01:09:22.507Z,5.10
2017-12-27T01:11:50.009Z,5.00
2017-12-27T01:14:17.501Z,5.00
2017-12-27T01:16:45.025Z,5.00
2017-12-27T01:19:13.283Z,5.00
2017-12-27T01:21:40.982Z,5.00
2017-12-27T01:24:08.475Z,4.90
2017-12-27T01:26:36.903Z,4.80
2017-12-27T01:29:05.231Z,4.90
2017-12-27T01:31:33.138Z,4.90
2017-12-27T01:34:00.755Z,4.80
2017-12-27T01:36:28.260Z,4.80
2017-12-27T01:38:55.938Z,4.70
2017-12-27T01:41:24.752Z,4.70
2017-12-27T01:43:52.378Z,4.70
2017-12-27T01:46:20.575Z,4.80
2017-12-27T01:48:48.259Z,4.80
2017-12-27T01:51:15.759Z,4.70
2017-12-27T01:53:43.786Z,4.60
2017-12-27T01:56:11.560Z,4.60
2017-12-27T01:58:39.318Z,4.60
2017-12-27T02:01:07.351Z,4.60
2017-12-27T02:03:34.851Z,4.50
2017-12-27T02:06:02.875Z,4.60
2017-12-27T02:08:30.774Z,4.60
2017-12-27T02:10:58.707Z,4.60
2017-12-27T02:13:27.056Z,4.50
2017-12-27T02:15:54.551Z,4.50
2017-12-27T02:18:22.649Z,4.60
2017-12-27T02:20:50.139Z,4.60
2017-12-27T02:23:17.639Z,4.60
2017-12-27T02:25:45.287Z,4.50
2017-12-27T02:28:12.995Z,4.40
2017-12-27T02:30:40.555Z,4.40
2017-12-27T02:33:08.047Z,4.40
2017-12-27T02:35:35.776Z,4.40
2017-12-27T02:38:03.683Z,4.30
2017-12-27T02:40:32.176Z,4.20
2017-12-27T02:43:00.069Z,4.20
2017-12-27T02:45:27.730Z,4.30
2017-12-27T02:47:55.218Z,4.30
2017-12-27T02:50:23.275Z,4.30
2017-12-27T02:52:51.697Z,4.30
2017-12-27T02:55:19.347Z,4.20
2017-12-27T02:57:47.600Z,4.20
2017-12-27T03:00:15.079Z,4.30
2017-12-27T03:02:42.710Z,4.20
2017-12-27T03:05:10.471Z,4.30
2017-12-27T03:07:38.235Z,4.30
2017-12-27T03:10:05.877Z,4.40
2017-12-27T03:12:33.767Z,4.50
2017-12-27T03:15:01.271Z,4.40
2017-12-27T03:17:28.771Z,4.40
2017-12-27T03:19:56.367Z,4.40
2017-12-27T03:22:23.898Z,4.40
2017-12-27T03:24:51.659Z,4.30
2017-12-27T03:27:19.735Z,4.40
2017-12-27T03:29:47.527Z,4.50
2017-12-27T03:32:15.562Z,4.50
2017-12-27T03:34:43.055Z,4.50
2017-12-27T03:37:11.376Z,4.50
2017-12-27T03:39:38.858Z,4.40
2017-12-27T03:42:06.612Z,4.50
2017-12-27T03:44:35.946Z,4.40
2017-12-27T03:47:03.860Z,4.30
2017-12-27T03:49:31.411Z,4.40
2017-12-27T03:51:58.911Z,4.40
2017-12-27T03:54:26.402Z,4.30
2017-12-27T03:56:54.119Z,4.40
2017-12-27T03:59:21.834Z,4.40
2017-12-27T04:01:49.547Z,4.30
2017-12-27T04:04:18.027Z,4.40
2017-12-27T04:06:45.539Z,4.40
2017-12-27T04:09:13.509Z,4.40
2017-12-27T04:11:41.002Z,4.40
2017-12-27T04:14:08.501Z,4.40
2017-12-27T04:16:36.942Z,4.30
2017-12-27T04:19:05.097Z,4.30
2017-12-27T04:21:32.591Z,4.40
2017-12-27T04:24:00.491Z,4.40
2017-12-27T04:26:28.003Z,4.40
2017-12-27T04:28:55.490Z,4.40
2017-12-27T04:31:22.990Z,4.30
2017-12-27T04:33:50.489Z,4.40
2017-12-27T04:36:18.031Z,4.40
2017-12-27T04:38:46.307Z,4.30
2017-12-27T04:41:13.863Z,4.40
2017-12-27T04:43:41.362Z,4.40
2017-12-27T04:46:09.446Z,4.50
2017-12-27T04:48:37.338Z,4.50
2017-12-27T04:51:04.831Z,4.30
2017-12-27T04:53:32.374Z,4.30
2017-12-27T04:56:00.147Z,4.30
2017-12-27T04:58:27.907Z,4.30
2017-12-27T05:00:55.395Z,4.40
2017-12-27T05:03:23.654Z,4.40
2017-12-27T05:05:51.151Z,4.50
2017-12-27T05:08:18.651Z,4.40
2017-12-27T05:10:46.148Z,4.50
2017-12-27T05:13:13.783Z,4.40
2017-12-27T05:15:41.278Z,4.40
2017-12-27T05:18:09.175Z,4.40
2017-12-27T05:20:36.667Z,4.40
2017-12-27T05:23:04.307Z,4.50
2017-12-27T05:25:32.075Z,4.40
2017-12-27T05:27:59.986Z,4.60
2017-12-27T05:30:28.242Z,4.60
2017-12-27T05:32:55.735Z,4.60
2017-12-27T05:35:23.438Z,4.60
2017-12-27T05:37:50.922Z,4.60
2017-12-27T05:40:18.655Z,4.60
2017-12-27T05:42:46.727Z,4.60
2017-12-27T05:45:14.602Z,4.60
2017-12-27T05:47:42.251Z,4.60
2017-12-27T05:50:09.748Z,4.50
2017-12-27T05:52:37.488Z,4.40
2017-12-27T05:55:05.513Z,4.50
2017-12-27T05:57:33.006Z,4.40
2017-12-27T06:00:01.073Z,4.50
2017-12-27T06:02:28.838Z,4.60
2017-12-27T06:04:57.555Z,4.80
2017-12-27T06:07:25.057Z,4.60
2017-12-27T06:09:52.550Z,4.60
2017-12-27T06:12:20.042Z,4.80
2017-12-27T06:14:48.302Z,4.70
2017-12-27T06:17:16.421Z,4.50
2017-12-27T06:19:44.307Z,4.50
2017-12-27T06:22:11.814Z,4.50
2017-12-27T06:24:39.315Z,4.50
2017-12-27T06:27:07.083Z,4.60
2017-12-27T06:29:34.847Z,4.60
2017-12-27T06:32:02.463Z,4.60
2017-12-27T06:34:30.718Z,4.70
2017-12-27T06:36:58.342Z,4.70
2017-12-27T06:39:25.904Z,5.10
2017-12-27T06:41:53.409Z,5.20
2017-12-27T06:44:20.896Z,5.30
2017-12-27T06:46:48.398Z,5.70
2017-12-27T06:49:18.064Z,5.70
2017-12-27T06:51:46.586Z,5.70
2017-12-27T06:54:14.081Z,6.10
2017-12-27T06:56:41.783Z,6.20
2017-12-27T06:59:10.004Z,5.60
2017-12-27T07:01:38.538Z,5.40
2017-12-27T07:04:06.303Z,5.30
2017-12-27T07:06:34.558Z,5.10
2017-12-27T07:09:03.140Z,4.90
2017-12-27T07:11:32.563Z,4.90
2017-12-27T07:14:00.130Z,4.90
2017-12-27T07:16:28.498Z,4.90
2017-12-27T07:18:56.966Z,4.60
2017-12-27T07:21:25.220Z,4.60
2017-12-27T07:23:52.718Z,4.60
2017-12-27T07:26:20.215Z,4.70
2017-12-27T07:28:48.223Z,4.70
2017-12-27T07:31:16.271Z,4.70
2017-12-27T07:33:43.779Z,4.70
2017-12-27T07:36:11.279Z,4.80
2017-12-27T07:38:38.783Z,4.80
2017-12-27T07:41:06.275Z,4.70
2017-12-27T07:43:34.442Z,4.70
2017-12-27T07:46:02.663Z,4.80
2017-12-27T07:48:30.159Z,4.80
2017-12-27T07:50:57.660Z,4.70
2017-12-27T07:53:26.915Z,4.80
2017-12-27T07:55:54.416Z,4.80
2017-12-27T07:58:22.817Z,4.80
2017-12-27T08:00:50.299Z,4.90
2017-12-27T08:03:18.187Z,4.80
2017-12-27T08:05:45.693Z,4.80
2017-12-27T08:08:13.294Z,4.90
2017-12-27T08:10:40.811Z,5.00
2017-12-27T08:13:08.599Z,5.00
2017-12-27T08:15:36.654Z,5.00
2017-12-27T08:18:04.154Z,5.00
2017-12-27T08:20:31.655Z,5.00
2017-12-27T08:22:59.342Z,5.00
2017-12-27T08:25:26.834Z,4.90
2017-12-27T08:27:54.340Z,5.00
2017-12-27T08:30:22.023Z,5.00
2017-12-27T08:32:49.868Z,5.00
2017-12-27T08:35:18.500Z,5.00
2017-12-27T08:37:46.318Z,5.00
2017-12-27T08:40:14.559Z,4.90
2017-12-27T08:42:42.063Z,4.80
2017-12-27T08:45:09.564Z,4.80
2017-12-27T08:47:41.093Z,5.00
2017-12-27T08:50:09.552Z,5.00
2017-12-27T08:52:37.039Z,5.00
2017-12-27T08:55:04.621Z,5.00
2017-12-27T08:57:32.380Z,5.10
2017-12-27T08:59:59.879Z,5.20
2017-12-27T09:02:27.383Z,5.20
2017-12-27T09:04:54.879Z,5.20
2017-12-27T09:07:22.370Z,5.20
2017-12-27T09:09:49.867Z,5.20
2017-12-27T09:12:17.819Z,5.20
2017-12-27T09:14:45.363Z,5.20
2017-12-27T09:17:12.923Z,5.20
2017-12-27T09:19:40.671Z,5.20
2017-12-27T09:22:08.523Z,5.20
2017-12-27T09:24:37.143Z,5.30
2017-12-27T09:27:05.503Z,5.30
2017-12-27T09:29:33.269Z,5.30
2017-12-27T09:32:00.769Z,5.40
2017-12-27T09:34:28.583Z,5.30
2017-12-27T09:36:56.565Z,5.30
2017-12-27T09:39:24.580Z,5.40
2017-12-27T09:41:52.101Z,5.30
2017-12-27T09:44:21.389Z,5.40
2017-12-27T09:46:49.767Z,5.50
2017-12-27T09:49:17.827Z,5.40
2017-12-27T09:51:45.318Z,5.30
2017-12-27T09:54:13.041Z,5.20
2017-12-27T09:56:40.815Z,5.10
2017-12-27T09:59:08.574Z,5.10
2017-12-27T10:01:36.067Z,5.00
2017-12-27T10:04:05.072Z,5.10
2017-12-27T10:06:32.795Z,5.30
2017-12-27T10:09:00.864Z,5.10
2017-12-27T10:11:29.014Z,5.10
2017-12-27T10:13:57.672Z,5.00
2017-12-27T10:16:25.346Z,5.00
2017-12-27T10:18:53.230Z,4.90
2017-12-27T10:21:20.726Z,4.80
2017-12-27T10:23:48.326Z,5.00
2017-12-27T10:26:15.819Z,5.10
2017-12-27T10:28:43.582Z,5.20
2017-12-27T10:31:11.351Z,5.20
2017-12-27T10:33:38.975Z,5.20
2017-12-27T10:36:06.878Z,5.30
2017-12-27T10:38:34.495Z,5.30
2017-12-27T10:41:02.095Z,5.20
2017-12-27T10:43:29.592Z,5.20
2017-12-27T10:45:57.480Z,5.20
2017-12-27T10:48:24.966Z,5.20
2017-12-27T10:50:52.534Z,5.30
2017-12-27T10:53:20.023Z,5.30
2017-12-27T10:55:47.539Z,5.40
2017-12-27T10:58:15.031Z,5.50
2017-12-27T11:00:42.668Z,5.60
2017-12-27T11:03:10.378Z,5.40
2017-12-27T11:05:37.886Z,5.50
2017-12-27T11:08:05.926Z,5.60
2017-12-27T11:10:33.730Z,5.40
2017-12-27T11:13:01.794Z,5.40
2017-12-27T11:15:29.980Z,5.60
2017-12-27T11:17:58.383Z,5.70
2017-12-27T11:20:26.669Z,5.70
2017-12-27T11:22:54.163Z,5.70
2017-12-27T11:25:22.903Z,8.10
2017-12-27T11:27:50.834Z,5.80
2017-12-27T11:30:18.599Z,5.80
2017-12-27T11:32:46.511Z,5.80
2017-12-27T11:35:14.782Z,5.90
2017-12-27T11:37:42.776Z,5.90
2017-12-27T11:40:10.571Z,5.90
2017-12-27T11:42:38.455Z,5.90
2017-12-27T11:45:05.964Z,5.90
2017-12-27T11:47:34.226Z,5.90
2017-12-27T11:50:01.844Z,6.10
2017-12-27T11:52:29.347Z,6.20
2017-12-27T11:54:56.846Z,6.20
2017-12-27T11:57:24.452Z,6.20
2017-12-27T11:59:52.787Z,6.10
2017-12-27T12:02:20.455Z,6.10
2017-12-27T12:04:47.962Z,6.00
2017-12-27T12:07:16.227Z,6.00
2017-12-27T12:09:44.145Z,6.00
2017-12-27T12:12:11.753Z,6.00
2017-12-27T12:14:39.243Z,6.00
2017-12-27T12:17:07.242Z,5.90
2017-12-27T12:19:35.131Z,6.00
2017-12-27T12:22:02.740Z,6.00
2017-12-27T12:24:30.315Z,6.00
2017-12-27T12:26:58.083Z,6.10
2017-12-27T12:29:26.442Z,6.10
2017-12-27T12:31:54.218Z,6.10
2017-12-27T12:34:22.915Z,6.10
2017-12-27T12:36:50.979Z,6.10
2017-12-27T12:39:19.024Z,6.20
2017-12-27T12:41:46.811Z,6.10
2017-12-27T12:44:14.579Z,6.20
2017-12-27T12:46:42.339Z,6.20
2017-12-27T12:49:11.200Z,6.30
2017-12-27T12:51:39.096Z,6.20
2017-12-27T12:54:07.162Z,6.20
2017-12-27T12:56:34.660Z,6.10
2017-12-27T12:59:03.056Z,6.20
2017-12-27T13:01:30.767Z,6.40
2017-12-27T13:03:58.527Z,6.30
2017-12-27T13:06:26.035Z,6.30
2017-12-27T13:08:54.347Z,6.20
2017-12-27T13:11:21.834Z,6.20
2017-12-27T13:13:50.154Z,6.20
2017-12-27T13:16:17.644Z,6.20
2017-12-27T13:18:46.339Z,6.20
2017-12-27T13:21:13.844Z,6.20
2017-12-27T13:23:41.543Z,6.20
2017-12-27T13:26:09.026Z,6.20
2017-12-27T13:28:38.498Z,6.30
2017-12-27T13:31:06.755Z,6.30
2017-12-27T13:33:34.251Z,6.30
2017-12-27T13:36:01.895Z,6.40
2017-12-27T13:38:29.790Z,6.40
2017-12-27T13:40:58.446Z,6.40
2017-12-27T13:43:25.946Z,6.50
2017-12-27T13:45:53.538Z,6.40
2017-12-27T13:48:21.147Z,6.40
2017-12-27T13:50:49.043Z,6.40
2017-12-27T13:53:16.541Z,6.40
2017-12-27T13:55:44.035Z,6.50
2017-12-27T13:58:12.771Z,6.40
2017-12-27T14:00:40.450Z,6.30
2017-12-27T14:03:07.939Z,6.40
2017-12-27T14:05:36.652Z,4.20
2017-12-27T14:08:04.291Z,6.30
2017-12-27T14:10:32.414Z,6.30
2017-12-27T14:12:59.906Z,6.30
2017-12-27T14:15:27.410Z,6.40
2017-12-27T14:17:55.083Z,6.40
2017-12-27T14:20:23.786Z,6.50
2017-12-27T14:22:51.275Z,6.50
2017-12-27T14:25:18.771Z,6.50
2017-12-27T14:27:46.659Z,6.50
2017-12-27T14:30:14.264Z,6.50
2017-12-27T14:32:42.011Z,6.40
2017-12-27T14:35:09.532Z,6.40
2017-12-27T14:37:37.180Z,6.40
2017-12-27T14:40:05.070Z,6.40
2017-12-27T14:42:32.822Z,6.40
2017-12-27T14:45:00.323Z,6.40
2017-12-27T14:47:27.994Z,6.40
2017-12-27T14:49:55.490Z,6.40
2017-12-27T14:52:23.198Z,6.40
2017-12-27T14:54:50.967Z,6.30
2017-12-27T14:57:18.598Z,6.30
2017-12-27T14:59:46.179Z,6.30
2017-12-27T15:02:14.235Z,6.20
2017-12-27T15:04:42.407Z,6.30
2017-12-27T15:07:10.574Z,6.30
2017-12-27T15:09:38.115Z,6.30
2017-12-27T15:12:05.922Z,6.30
2017-12-27T15:14:33.419Z,6.30
2017-12-27T15:17:00.907Z,6.40
2017-12-27T15:19:29.211Z,6.30
2017-12-27T15:21:57.262Z,6.30
2017-12-27T15:24:24.750Z,6.30
2017-12-27T15:26:52.244Z,6.30
2017-12-27T15:29:19.963Z,6.40
2017-12-27T15:31:47.583Z,6.30
2017-12-27T15:34:15.082Z,6.30
2017-12-27T15:36:42.571Z,6.40
2017-12-27T15:39:10.072Z,6.30
2017-12-27T15:41:37.855Z,6.30
2017-12-27T15:44:05.355Z,6.30
2017-12-27T15:46:32.851Z,6.40
2017-12-27T15:49:00.359Z,6.40
2017-12-27T15:51:27.862Z,6.30
2017-12-27T15:53:55.447Z,6.20
2017-12-27T15:56:23.211Z,6.20
2017-12-27T15:58:50.974Z,6.20
2017-12-27T16:01:18.471Z,6.20
2017-12-27T16:03:46.362Z,6.20
2017-12-27T16:06:13.955Z,6.20
2017-12-27T16:08:42.632Z,6.20
2017-12-27T16:11:10.409Z,6.30
2017-12-27T16:13:38.519Z,6.20
2017-12-27T16:16:06.563Z,6.20
2017-12-27T16:18:34.050Z,6.30
2017-12-27T16:21:01.731Z,6.30
2017-12-27T16:23:29.223Z,6.30
2017-12-27T16:25:56.731Z,6.30
2017-12-27T16:28:24.269Z,6.30
2017-12-27T16:30:51.744Z,6.30
2017-12-27T16:33:19.647Z,6.30
2017-12-27T16:35:47.135Z,6.30
2017-12-27T16:38:14.877Z,6.20
2017-12-27T16:40:42.375Z,6.20
2017-12-27T16:43:09.878Z,6.20
2017-12-27T16:45:38.495Z,6.30
2017-12-27T16:48:06.211Z,6.30
2017-12-27T16:50:35.012Z,6.20
2017-12-27T16:53:02.679Z,6.20
2017-12-27T16:55:30.463Z,6.30
2017-12-27T16:57:57.962Z,6.30
2017-12-27T17:00:25.990Z,6.20
2017-12-27T17:02:54.520Z,6.20
2017-12-27T17:05:22.771Z,6.20
2017-12-27T17:07:50.855Z,6.20
2017-12-27T17:10:18.335Z,6.10
2017-12-27T17:12:46.015Z,6.20
2017-12-27T17:15:14.288Z,6.20
2017-12-27T17:17:41.871Z,6.30
2017-12-27T17:20:09.632Z,6.30
2017-12-27T17:22:37.143Z,6.20
2017-12-27T17:25:04.815Z,6.20
2017-12-27T17:27:32.312Z,6.20
2017-12-27T17:29:59.802Z,6.20
2017-12-27T17:32:27.526Z,6.10
2017-12-27T17:34:55.036Z,6.30
2017-12-27T17:37:22.532Z,6.30
2017-12-27T17:39:51.331Z,6.30
2017-12-27T17:42:19.815Z,6.30
2017-12-27T17:44:47.707Z,6.20
2017-12-27T17:47:15.603Z,6.20
2017-12-27T17:49:43.103Z,6.30
2017-12-27T17:52:10.605Z,6.30
2017-12-27T17:54:38.099Z,6.20
2017-12-27T17:57:05.630Z,6.20
2017-12-27T17:59:33.941Z,6.10
2017-12-27T18:02:01.616Z,6.00
2017-12-27T18:04:29.121Z,5.90
2017-12-27T18:06:57.523Z,5.90
2017-12-27T18:09:25.073Z,5.90
2017-12-27T18:11:52.955Z,5.80
2017-12-27T18:14:21.008Z,5.70
2017-12-27T18:16:48.861Z,5.70
2017-12-27T18:19:16.551Z,5.70
2017-12-27T18:21:44.691Z,5.60
2017-12-27T18:24:12.471Z,5.70
2017-12-27T18:26:40.024Z,5.70
2017-12-27T18:29:07.663Z,5.60
2017-12-27T18:31:35.881Z,5.60
2017-12-27T18:34:04.208Z,5.70
2017-12-27T18:36:32.227Z,5.70
2017-12-27T18:38:59.911Z,5.70
2017-12-27T18:41:27.414Z,5.70
2017-12-27T18:43:54.903Z,5.70
2017-12-27T18:46:22.589Z,5.70
2017-12-27T18:48:50.095Z,5.70
2017-12-27T18:51:18.557Z,5.70
2017-12-27T18:53:46.102Z,5.70
2017-12-27T18:56:14.114Z,5.70
2017-12-27T18:58:41.799Z,5.80
2017-12-27T19:01:10.422Z,5.80
2017-12-27T19:03:37.971Z,5.70
2017-12-27T19:06:06.473Z,5.70
2017-12-27T19:08:34.611Z,5.80
2017-12-27T19:11:02.103Z,5.70
2017-12-27T19:13:29.606Z,5.70
2017-12-27T19:15:57.238Z,5.70
2017-12-27T19:18:25.250Z,5.70
2017-12-27T19:20:53.950Z,5.80
2017-12-27T19:23:22.535Z,5.80
2017-12-27T19:25:50.144Z,5.80
2017-12-27T19:28:18.571Z,5.80
2017-12-27T19:30:46.070Z,5.90
2017-12-27T19:33:14.250Z,5.90
2017-12-27T19:35:41.852Z,5.80
2017-12-27T19:38:10.082Z,5.80
2017-12-27T19:40:38.349Z,5.80
2017-12-27T19:43:06.019Z,5.70
2017-12-27T19:45:33.831Z,5.70
2017-12-27T19:48:01.324Z,5.70
2017-12-27T19:50:29.355Z,5.80
2017-12-27T19:52:56.919Z,5.80
2017-12-27T19:55:24.435Z,5.80
2017-12-27T19:57:52.706Z,5.80
2017-12-27T20:00:20.439Z,5.80
2017-12-27T20:02:48.865Z,5.80
2017-12-27T20:05:16.530Z,5.80
2017-12-27T20:07:44.904Z,5.70
2017-12-27T20:10:12.519Z,5.70
2017-12-27T20:12:40.059Z,5.70
2017-12-27T20:15:08.539Z,5.70
2017-12-27T20:17:36.319Z,5.70
2017-12-27T20:20:04.002Z,5.60
2017-12-27T20:22:31.474Z,5.60
2017-12-27T20:24:59.386Z,5.60
2017-12-27T20:27:27.044Z,5.40
2017-12-27T20:29:54.576Z,5.40
2017-12-27T20:32:22.615Z,5.50
2017-12-27T20:34:50.347Z,5.50
2017-12-27T20:37:19.331Z,5.50
2017-12-27T20:39:46.948Z,5.50
2017-12-27T20:42:14.474Z,5.50
2017-12-27T20:44:41.987Z,5.50
2017-12-27T20:47:09.770Z,5.50
2017-12-27T20:49:37.532Z,5.50
2017-12-27T20:52:05.063Z,5.40
2017-12-27T20:54:32.789Z,5.40
2017-12-27T20:57:00.341Z,5.40
2017-12-27T20:59:27.862Z,5.40
2017-12-27T21:01:55.642Z,5.40
2017-12-27T21:04:23.122Z,5.50
2017-12-27T21:06:50.630Z,5.40
2017-12-27T21:09:18.719Z,5.40
2017-12-27T21:11:46.246Z,5.40
2017-12-27T21:14:15.743Z,5.40
2017-12-27T21:16:43.254Z,5.40
2017-12-27T21:19:10.998Z,5.30
2017-12-27T21:21:38.768Z,5.30
2017-12-27T21:24:06.924Z,5.90
2017-12-27T21:26:34.563Z,6.00
2017-12-27T21:29:03.589Z,6.00
2017-12-27T21:31:31.079Z,6.30
2017-12-27T21:34:00.476Z,6.30
2017-12-27T21:36:28.755Z,6.00
2017-12-27T21:38:56.258Z,5.80
2017-12-27T21:41:23.943Z,5.60
2017-12-27T21:43:51.864Z,5.40
2017-12-27T21:46:20.178Z,5.30
2017-12-27T21:48:53.594Z,5.20
2017-12-27T21:51:21.963Z,5.10
2017-12-27T21:53:49.518Z,5.10
2017-12-27T21:56:17.282Z,5.00
2017-12-27T21:58:50.573Z,5.00
2017-12-27T22:01:23.806Z,4.90
2017-12-27T22:03:52.127Z,4.90
2017-12-27T22:06:19.615Z,4.90
2017-12-27T22:08:48.044Z,4.90
2017-12-27T22:11:16.770Z,4.90
2017-12-27T22:13:45.351Z,4.90
2017-12-27T22:16:13.545Z,4.90
2017-12-27T22:18:41.096Z,4.90
2017-12-27T22:21:08.938Z,4.90
2017-12-27T22:23:37.423Z,4.80
2017-12-27T22:26:04.963Z,4.70
2017-12-27T22:28:33.443Z,4.70
2017-12-27T22:31:01.756Z,4.70
2017-12-27T22:33:30.245Z,4.70
2017-12-27T22:35:57.787Z,4.70
2017-12-27T22:38:25.411Z,4.80
2017-12-27T22:40:53.005Z,4.70
2017-12-27T22:43:20.495Z,4.80
2017-12-27T22:45:48.011Z,4.80
2017-12-27T22:48:15.502Z,4.80
2017-12-27T22:50:43.134Z,4.90
2017-12-27T22:53:10.895Z,4.80
2017-12-27T22:55:38.663Z,4.90
2017-12-27T22:58:06.147Z,4.80
2017-12-27T23:00:33.848Z,4.80
2017-12-27T23:03:01.335Z,4.80
2017-12-27T23:05:29.098Z,4.80
2017-12-27T23:07:56.589Z,4.80
2017-12-27T23:10:24.631Z,4.80
2017-12-27T23:12:52.395Z,4.80
2017-12-27T23:15:20.160Z,4.80
2017-12-27T23:17:47.654Z,4.70
2017-12-27T23:20:15.299Z,4.70
2017-12-27T23:22:42.834Z,4.70
2017-12-27T23:25:10.322Z,4.70
2017-12-27T23:27:38.051Z,4.80
2017-12-27T23:30:05.553Z,4.80
2017-12-27T23:32:33.275Z,4.80
2017-12-27T23:35:00.767Z,4.80
2017-12-27T23:37:29.067Z,4.90
2017-12-27T23:39:57.179Z,4.90
2017-12-27T23:42:24.942Z,4.90
2017-12-27T23:44:52.708Z,4.90
2017-12-27T23:47:20.470Z,4.90
2017-12-27T23:49:47.975Z,4.90
2017-12-27T23:52:15.998Z,5.00
2017-12-27T23:54:43.478Z,5.00
2017-12-27T23:57:10.987Z,4.90
2017-12-27T23:59:38.582Z,4.90
